Amonate, Virginia
Current Conditions -  °F | °C
As of 7:55 PM on Monday 22 Dec 2014 (Local Time) from KJFZ Reporting Station
Clear Clear  
Wind Chill:   Ceiling: Unl
Heat Index:   Visibility: 10mi
Dew Point:   Wind: 9mph
Humidity: 78%   Direction: 120°ESE
Pressure: 29.91"   Gusts: 20mph
Location:  37.19°N, 81.64°W
Report Text: KJFZ 230055Z AUTO 12008G17KT 070V160 10SM CLR 06/02 A2991 RMK AO2 T00550020
Loading
Personal Weather Stations






























Interactive Weather Map New forecast layout! Learn more

10-Day Weather Forecast

Advertisements
Track Severe Weather on mobile